Time;durP1;ratioP1;P1;durP2;ratioP2;P2;SDS_P1;SDS_P2;PMS_P1;PMS_P2;Temp;Humidity;BMP_temperature;BMP_pressure;BME280_temperature;BME280_humidity;BME280_pressure;Samples;Min_cycle;Max_cycle;Signal;HPM_P1;HPM_P2
2022/10/26 00:00:37;;;;;;;1.77;0.80;;;;;;;;;;5052974;28;20083;-41
2022/10/26 00:03:03;;;;;;;1.00;0.82;;;;;;;;;;5053534;28;20033;-41
2022/10/26 00:05:31;;;;;;;1.25;0.90;;;;;;;;;;5052803;28;20025;-41
2022/10/26 00:07:56;;;;;;;3.50;0.63;;;;;;;;;;5052818;28;20095;-41
2022/10/26 00:10:22;;;;;;;1.67;1.00;;;;;;;;;;5052904;28;20480;-41
2022/10/26 00:12:49;;;;;;;2.05;0.80;;;;;;;;;;5052635;28;20025;-41
2022/10/26 00:15:14;;;;;;;1.13;0.52;;;;;;;;;;5053015;28;20075;-41
2022/10/26 00:17:40;;;;;;;3.15;0.73;;;;;;;;;;5052498;28;20032;-41
2022/10/26 00:20:06;;;;;;;1.13;0.60;;;;;;;;;;5052819;28;20056;-41
2022/10/26 00:22:31;;;;;;;3.30;0.50;;;;;;;;;;5052663;28;20033;-41
2022/10/26 00:24:56;;;;;;;2.17;0.80;;;;;;;;;;5052492;28;20032;-41
2022/10/26 00:27:22;;;;;;;4.18;0.60;;;;;;;;;;5052740;28;20520;-41
2022/10/26 00:29:47;;;;;;;1.52;0.50;;;;;;;;;;5067827;28;20036;-41
2022/10/26 00:32:12;;;;;;;1.20;0.60;;;;;;;;;;5067138;28;20498;-41
2022/10/26 00:34:38;;;;;;;1.45;0.90;;;;;;;;;;5052194;28;20039;-41
2022/10/26 00:37:03;;;;;;;0.85;0.50;;;;;;;;;;5052369;28;20041;-41
2022/10/26 00:39:29;;;;;;;4.18;0.70;;;;;;;;;;5052136;28;20052;-41
2022/10/26 00:41:54;;;;;;;6.97;0.55;;;;;;;;;;5052415;28;20036;-41
2022/10/26 00:44:38;;;;;;;1.58;1.10;;;;;;;;;;5052474;28;20036;-41
2022/10/26 00:47:04;;;;;;;2.33;0.70;;;;;;;;;;5052113;28;20033;-41
2022/10/26 00:49:29;;;;;;;1.30;0.60;;;;;;;;;;5051974;28;20028;-41
2022/10/26 00:51:55;;;;;;;1.55;0.57;;;;;;;;;;5052070;28;20064;-41
2022/10/26 00:54:20;;;;;;;1.65;0.55;;;;;;;;;;5052275;28;20385;-41
2022/10/26 00:56:48;;;;;;;0.57;0.43;;;;;;;;;;5051675;28;20102;-41
2022/10/26 00:59:15;;;;;;;1.48;1.05;;;;;;;;;;5052256;28;20024;-41
2022/10/26 01:01:42;;;;;;;0.82;0.63;;;;;;;;;;5051779;28;20381;-41
2022/10/26 01:04:08;;;;;;;0.85;0.43;;;;;;;;;;5051777;28;20521;-41
2022/10/26 01:06:35;;;;;;;1.48;0.88;;;;;;;;;;5051998;28;20029;-41
2022/10/26 01:09:00;;;;;;;2.00;0.93;;;;;;;;;;5051628;28;20013;-41
2022/10/26 01:11:26;;;;;;;2.10;0.65;;;;;;;;;;5052063;28;20099;-41
2022/10/26 01:13:52;;;;;;;1.17;0.77;;;;;;;;;;5051612;28;20422;-41
2022/10/26 01:16:27;;;;;;;0.82;0.55;;;;;;;;;;5051569;28;20073;-41
2022/10/26 01:19:11;;;;;;;2.35;0.98;;;;;;;;;;5051843;28;20071;-41
2022/10/26 01:21:43;;;;;;;1.45;0.50;;;;;;;;;;5051879;28;20032;-41
2022/10/26 01:24:18;;;;;;;6.50;0.65;;;;;;;;;;5051555;28;20032;-41
2022/10/26 01:26:47;;;;;;;0.75;0.38;;;;;;;;;;5051335;28;20051;-42
2022/10/26 01:29:21;;;;;;;1.45;0.50;;;;;;;;;;5066896;28;20021;-41
2022/10/26 01:31:52;;;;;;;3.97;0.88;;;;;;;;;;5051362;28;20037;-41
2022/10/26 01:34:21;;;;;;;0.75;0.45;;;;;;;;;;5051698;28;20040;-41
2022/10/26 01:36:53;;;;;;;1.17;0.60;;;;;;;;;;5051147;28;20037;-41
2022/10/26 01:39:25;;;;;;;0.50;0.50;;;;;;;;;;5051150;28;20119;-41
2022/10/26 01:41:51;;;;;;;0.85;0.80;;;;;;;;;;5051577;28;20120;-41
2022/10/26 01:44:17;;;;;;;0.95;0.60;;;;;;;;;;5051053;28;20112;-41
2022/10/26 01:46:44;;;;;;;2.05;0.80;;;;;;;;;;5051113;28;20115;-41
2022/10/26 01:49:11;;;;;;;0.50;0.50;;;;;;;;;;5051336;28;20025;-41
2022/10/26 01:51:40;;;;;;;3.97;0.75;;;;;;;;;;5051440;28;20029;-41
2022/10/26 01:54:05;;;;;;;1.80;0.63;;;;;;;;;;5051226;28;20100;-41
2022/10/26 01:56:33;;;;;;;3.60;0.50;;;;;;;;;;5051025;28;20084;-41
2022/10/26 01:59:02;;;;;;;1.02;0.93;;;;;;;;;;5051132;28;20017;-41
2022/10/26 02:01:27;;;;;;;0.40;0.40;;;;;;;;;;5051088;28;20032;-42
2022/10/26 02:03:57;;;;;;;1.52;0.50;;;;;;;;;;5051332;28;20020;-41
2022/10/26 02:06:40;;;;;;;1.33;0.65;;;;;;;;;;5050970;28;20068;-41
2022/10/26 02:09:23;;;;;;;2.00;0.88;;;;;;;;;;5051137;28;20486;-43
2022/10/26 02:11:51;;;;;;;0.95;0.52;;;;;;;;;;5049768;28;20029;-41
2022/10/26 02:14:32;;;;;;;0.57;0.35;;;;;;;;;;5051227;28;20095;-42
2022/10/26 02:17:06;;;;;;;2.67;1.00;;;;;;;;;;5051006;28;20037;-41
2022/10/26 02:19:31;;;;;;;1.45;0.50;;;;;;;;;;5051317;28;20028;-41
2022/10/26 02:22:12;;;;;;;1.77;0.50;;;;;;;;;;5051096;28;20025;-41
2022/10/26 02:24:38;;;;;;;0.60;0.60;;;;;;;;;;5051258;28;20036;-41
2022/10/26 02:27:06;;;;;;;0.82;0.75;;;;;;;;;;5050916;28;20029;-41
2022/10/26 02:29:32;;;;;;;1.00;0.60;;;;;;;;;;5050899;28;20045;-41
2022/10/26 02:31:59;;;;;;;0.47;0.47;;;;;;;;;;5066433;28;20017;-43
2022/10/26 02:34:25;;;;;;;4.30;1.08;;;;;;;;;;5049610;28;20111;-42
2022/10/26 02:36:52;;;;;;;2.05;0.63;;;;;;;;;;5050646;28;20168;-41
2022/10/26 02:39:18;;;;;;;1.70;0.70;;;;;;;;;;5050629;28;20183;-41
2022/10/26 02:41:44;;;;;;;0.40;0.40;;;;;;;;;;5050721;28;20480;-41
2022/10/26 02:44:25;;;;;;;0.88;0.50;;;;;;;;;;5050891;28;20483;-41
2022/10/26 02:46:51;;;;;;;3.40;0.82;;;;;;;;;;5050646;28;20102;-42
2022/10/26 02:49:17;;;;;;;3.13;1.08;;;;;;;;;;5050560;28;20546;-42
2022/10/26 02:51:49;;;;;;;0.22;0.22;;;;;;;;;;5050578;28;20065;-41
2022/10/26 02:54:14;;;;;;;1.27;0.47;;;;;;;;;;5050859;28;20037;-41
2022/10/26 02:56:39;;;;;;;4.25;0.40;;;;;;;;;;5052343;28;20033;-40
2022/10/26 02:59:06;;;;;;;0.68;0.47;;;;;;;;;;5054224;28;20021;-41
2022/10/26 03:01:32;;;;;;;0.50;0.50;;;;;;;;;;5054184;28;20035;-41
2022/10/26 03:03:58;;;;;;;0.55;0.45;;;;;;;;;;5054016;28;20025;-41
2022/10/26 03:06:24;;;;;;;0.40;0.30;;;;;;;;;;5054313;28;20426;-41
2022/10/26 03:08:50;;;;;;;2.05;0.82;;;;;;;;;;5069658;28;20029;-41
2022/10/26 03:11:16;;;;;;;2.75;0.68;;;;;;;;;;5053996;28;20051;-41
2022/10/26 03:13:41;;;;;;;0.52;0.40;;;;;;;;;;5053910;28;20501;-41
2022/10/26 03:16:07;;;;;;;9.35;0.80;;;;;;;;;;5053808;28;20037;-41
2022/10/26 03:18:32;;;;;;;0.68;0.50;;;;;;;;;;5053921;28;20023;-41
2022/10/26 03:20:58;;;;;;;1.15;0.47;;;;;;;;;;5053938;28;20013;-41
2022/10/26 03:23:23;;;;;;;0.22;0.22;;;;;;;;;;5053817;28;20029;-41
2022/10/26 03:25:48;;;;;;;0.30;0.30;;;;;;;;;;5053552;28;20372;-41
2022/10/26 03:28:14;;;;;;;0.40;0.35;;;;;;;;;;5053706;28;20044;-41
2022/10/26 03:30:39;;;;;;;0.52;0.52;;;;;;;;;;5053983;28;20013;-41
2022/10/26 03:33:05;;;;;;;0.40;0.40;;;;;;;;;;5053489;28;20095;-41
2022/10/26 03:35:30;;;;;;;0.70;0.60;;;;;;;;;;5053508;28;20100;-41
2022/10/26 03:37:55;;;;;;;0.65;0.50;;;;;;;;;;5053171;28;20087;-42
2022/10/26 03:40:21;;;;;;;0.55;0.40;;;;;;;;;;5053404;28;20048;-41
2022/10/26 03:42:46;;;;;;;0.38;0.38;;;;;;;;;;5052057;28;20033;-41
2022/10/26 03:45:12;;;;;;;5.93;0.88;;;;;;;;;;5053359;28;20020;-42
2022/10/26 03:47:44;;;;;;;1.65;0.70;;;;;;;;;;5053491;28;20029;-41
2022/10/26 03:50:11;;;;;;;0.95;0.40;;;;;;;;;;5053242;28;20041;-41
2022/10/26 03:52:36;;;;;;;0.63;0.40;;;;;;;;;;5053256;28;20017;-41
2022/10/26 03:55:01;;;;;;;2.13;0.60;;;;;;;;;;5053131;28;20039;-40
2022/10/26 03:57:27;;;;;;;1.05;0.65;;;;;;;;;;5053290;28;20040;-41
2022/10/26 03:59:52;;;;;;;0.73;0.50;;;;;;;;;;5052957;28;20052;-41
2022/10/26 04:02:18;;;;;;;0.68;0.60;;;;;;;;;;5053065;28;20025;-41
2022/10/26 04:04:43;;;;;;;0.73;0.60;;;;;;;;;;5053210;28;20180;-41
2022/10/26 04:07:09;;;;;;;0.65;0.40;;;;;;;;;;5052836;28;20017;-41
2022/10/26 04:09:35;;;;;;;2.83;1.05;;;;;;;;;;5052899;28;20033;-41
2022/10/26 04:12:00;;;;;;;1.45;0.55;;;;;;;;;;5052824;28;20098;-41
2022/10/26 04:14:25;;;;;;;0.90;0.35;;;;;;;;;;5052787;28;20029;-40
2022/10/26 04:16:51;;;;;;;0.60;0.40;;;;;;;;;;5052594;28;20029;-41
2022/10/26 04:19:16;;;;;;;0.80;0.38;;;;;;;;;;5052740;28;20044;-41
2022/10/26 04:21:41;;;;;;;0.32;0.32;;;;;;;;;;5052607;28;20013;-41
2022/10/26 04:24:08;;;;;;;3.47;0.60;;;;;;;;;;5052929;28;20028;-41
2022/10/26 04:26:34;;;;;;;1.88;0.40;;;;;;;;;;5052631;28;20053;-41
2022/10/26 04:28:59;;;;;;;4.22;0.50;;;;;;;;;;5052675;28;20064;-41
2022/10/26 04:31:25;;;;;;;1.05;0.40;;;;;;;;;;5052785;28;20020;-41
2022/10/26 04:33:50;;;;;;;0.70;0.70;;;;;;;;;;5052356;28;20364;-41
2022/10/26 04:36:15;;;;;;;0.60;0.60;;;;;;;;;;5052135;28;20021;-41
2022/10/26 04:38:41;;;;;;;0.52;0.45;;;;;;;;;;5052269;28;20044;-41
2022/10/26 04:41:06;;;;;;;0.60;0.50;;;;;;;;;;5052386;28;20025;-41
2022/10/26 04:43:32;;;;;;;0.93;0.65;;;;;;;;;;5052475;28;20024;-41
2022/10/26 04:45:57;;;;;;;1.48;0.80;;;;;;;;;;5052395;28;20028;-41
2022/10/26 04:48:23;;;;;;;1.10;1.00;;;;;;;;;;5052107;28;20025;-41
2022/10/26 04:50:48;;;;;;;0.60;0.47;;;;;;;;;;5052267;28;20017;-41
2022/10/26 04:53:14;;;;;;;1.35;0.52;;;;;;;;;;5052317;28;20032;-41
2022/10/26 04:55:40;;;;;;;2.05;0.70;;;;;;;;;;5051958;28;20433;-41
2022/10/26 04:58:05;;;;;;;7.13;0.68;;;;;;;;;;5051821;28;20029;-41
2022/10/26 05:00:31;;;;;;;0.55;0.47;;;;;;;;;;5052256;28;20013;-41
2022/10/26 05:03:04;;;;;;;1.08;0.75;;;;;;;;;;5051780;28;20483;-41
2022/10/26 05:05:31;;;;;;;1.35;0.80;;;;;;;;;;5051877;28;20361;-41
2022/10/26 05:07:56;;;;;;;0.40;0.35;;;;;;;;;;5051958;28;20024;-41
2022/10/26 05:10:22;;;;;;;0.68;0.30;;;;;;;;;;5067254;28;20079;-41
2022/10/26 05:12:55;;;;;;;0.30;0.30;;;;;;;;;;5051854;28;20013;-41
2022/10/26 05:15:21;;;;;;;9.65;1.13;;;;;;;;;;5052073;28;20087;-41
2022/10/26 05:17:56;;;;;;;1.90;0.40;;;;;;;;;;5051773;28;20387;-41
2022/10/26 05:20:27;;;;;;;1.13;0.90;;;;;;;;;;5051431;28;20044;-41
2022/10/26 05:22:53;;;;;;;0.40;0.40;;;;;;;;;;5051538;28;20359;-41
2022/10/26 05:25:19;;;;;;;0.30;0.10;;;;;;;;;;5051764;28;20486;-41
2022/10/26 05:27:44;;;;;;;0.60;0.40;;;;;;;;;;5051676;28;20064;-41
2022/10/26 05:30:10;;;;;;;5.47;0.45;;;;;;;;;;5051453;28;20025;-41
2022/10/26 05:32:35;;;;;;;1.40;0.60;;;;;;;;;;5051465;28;20037;-41
2022/10/26 05:35:01;;;;;;;0.57;0.50;;;;;;;;;;5051603;28;20078;-41
2022/10/26 05:37:29;;;;;;;1.40;0.30;;;;;;;;;;5066779;28;20403;-41
2022/10/26 05:39:56;;;;;;;0.75;0.50;;;;;;;;;;5051227;28;20082;-41
2022/10/26 05:42:24;;;;;;;0.45;0.45;;;;;;;;;;5066767;28;20060;-41
2022/10/26 05:44:49;;;;;;;0.65;0.40;;;;;;;;;;5051551;28;20041;-41
2022/10/26 05:47:15;;;;;;;3.63;0.40;;;;;;;;;;5051161;28;20396;-41
2022/10/26 05:49:40;;;;;;;1.05;0.73;;;;;;;;;;5051243;28;20025;-41
2022/10/26 05:52:05;;;;;;;1.55;0.88;;;;;;;;;;5051176;28;20037;-41
2022/10/26 05:54:31;;;;;;;1.13;0.65;;;;;;;;;;5051433;28;20029;-41
2022/10/26 05:56:57;;;;;;;0.60;0.40;;;;;;;;;;5051271;28;20076;-41
2022/10/26 05:59:22;;;;;;;0.40;0.40;;;;;;;;;;5051210;28;20020;-41
2022/10/26 06:02:08;;;;;;;0.73;0.65;;;;;;;;;;5050995;28;20025;-40
2022/10/26 06:04:37;;;;;;;2.03;0.60;;;;;;;;;;5051361;28;20056;-41
2022/10/26 06:07:08;;;;;;;14.77;1.50;;;;;;;;;;5050929;28;20020;-40
2022/10/26 06:09:33;;;;;;;1.92;0.88;;;;;;;;;;5051300;28;20029;-41
2022/10/26 06:12:00;;;;;;;1.63;0.70;;;;;;;;;;5049674;28;20032;-41
2022/10/26 06:14:26;;;;;;;1.33;0.90;;;;;;;;;;5051410;28;20474;-41
2022/10/26 06:16:56;;;;;;;1.40;0.80;;;;;;;;;;5051022;28;20036;-40
2022/10/26 06:19:37;;;;;;;4.35;2.60;;;;;;;;;;5051032;28;20041;-41
2022/10/26 06:22:21;;;;;;;3.95;1.17;;;;;;;;;;5050874;28;20033;-41
2022/10/26 06:25:05;;;;;;;1.05;0.73;;;;;;;;;;5050773;28;20032;-41
2022/10/26 06:27:31;;;;;;;0.68;0.40;;;;;;;;;;5050945;28;20228;-41
2022/10/26 06:30:00;;;;;;;0.55;0.45;;;;;;;;;;5051039;28;20127;-41
2022/10/26 06:32:26;;;;;;;0.63;0.50;;;;;;;;;;5054111;28;20387;-41
2022/10/26 06:34:56;;;;;;;1.00;0.73;;;;;;;;;;5054647;28;20009;-41
2022/10/26 06:37:22;;;;;;;2.92;0.80;;;;;;;;;;5054370;28;20060;-41
2022/10/26 06:39:48;;;;;;;0.70;0.70;;;;;;;;;;5054613;28;20031;-41
2022/10/26 06:42:14;;;;;;;1.40;0.50;;;;;;;;;;5054568;28;20041;-40
2022/10/26 06:44:40;;;;;;;0.85;0.68;;;;;;;;;;5054743;28;20021;-40
2022/10/26 06:47:18;;;;;;;6.18;0.88;;;;;;;;;;5069754;28;20562;-41
2022/10/26 06:50:07;;;;;;;1.23;0.43;;;;;;;;;;5054459;28;20025;-42
2022/10/26 06:52:50;;;;;;;1.58;0.85;;;;;;;;;;5025526;28;20405;-41
2022/10/26 06:55:16;;;;;;;1.08;0.70;;;;;;;;;;5054311;28;20029;-41
2022/10/26 06:57:42;;;;;;;1.55;0.70;;;;;;;;;;5054147;28;20714;-41
2022/10/26 07:00:14;;;;;;;3.63;1.25;;;;;;;;;;5054151;28;20052;-41
2022/10/26 07:02:39;;;;;;;0.40;0.35;;;;;;;;;;5054149;28;20505;-41
2022/10/26 07:05:08;;;;;;;1.42;0.90;;;;;;;;;;5054101;28;20096;-41
2022/10/26 07:07:36;;;;;;;0.95;0.43;;;;;;;;;;5054044;28;20484;-41
2022/10/26 07:10:01;;;;;;;1.35;0.60;;;;;;;;;;5069397;28;20025;-41
2022/10/26 07:12:27;;;;;;;1.20;0.70;;;;;;;;;;5054242;28;20039;-41
2022/10/26 07:14:52;;;;;;;2.58;0.70;;;;;;;;;;5054142;28;20024;-41
2022/10/26 07:17:17;;;;;;;1.77;0.50;;;;;;;;;;5053855;28;20053;-40
2022/10/26 07:19:43;;;;;;;1.00;0.80;;;;;;;;;;5053802;28;20017;-41
2022/10/26 07:22:09;;;;;;;0.95;0.70;;;;;;;;;;5053678;28;20040;-41
2022/10/26 07:24:34;;;;;;;1.38;0.85;;;;;;;;;;5053904;28;20021;-41
2022/10/26 07:27:00;;;;;;;0.85;0.70;;;;;;;;;;5053581;28;20033;-41
2022/10/26 07:29:26;;;;;;;2.22;0.65;;;;;;;;;;5053689;28;20489;-43
2022/10/26 07:31:51;;;;;;;1.88;1.25;;;;;;;;;;5053859;28;20029;-41
2022/10/26 07:34:16;;;;;;;2.33;0.90;;;;;;;;;;5052258;28;20017;-41
2022/10/26 07:36:42;;;;;;;0.98;0.77;;;;;;;;;;5053489;28;20179;-41
2022/10/26 07:39:07;;;;;;;0.77;0.68;;;;;;;;;;5053342;28;20048;-42
2022/10/26 07:41:33;;;;;;;0.82;0.60;;;;;;;;;;5053344;28;20123;-40
2022/10/26 07:44:01;;;;;;;1.83;0.68;;;;;;;;;;5053433;28;20025;-41
2022/10/26 07:46:27;;;;;;;1.02;0.82;;;;;;;;;;5052029;28;20044;-40
2022/10/26 07:48:53;;;;;;;1.33;0.65;;;;;;;;;;5051953;28;20017;-41
2022/10/26 07:51:18;;;;;;;1.23;0.50;;;;;;;;;;5053295;28;20033;-41
2022/10/26 07:53:45;;;;;;;1.33;0.70;;;;;;;;;;5053569;28;20021;-41
2022/10/26 07:56:10;;;;;;;0.80;0.52;;;;;;;;;;5053343;28;20115;-41
2022/10/26 07:58:36;;;;;;;0.90;0.60;;;;;;;;;;5053128;28;20459;-41
2022/10/26 08:01:06;;;;;;;1.05;0.60;;;;;;;;;;5053039;28;20079;-41
2022/10/26 08:03:31;;;;;;;1.55;0.95;;;;;;;;;;5053192;28;20055;-40
2022/10/26 08:05:57;;;;;;;1.73;0.60;;;;;;;;;;5052897;28;20040;-40
2022/10/26 08:08:22;;;;;;;0.60;0.50;;;;;;;;;;5053257;28;20025;-41
2022/10/26 08:10:48;;;;;;;0.32;0.32;;;;;;;;;;5052713;28;20525;-41
2022/10/26 08:13:13;;;;;;;0.80;0.80;;;;;;;;;;5053177;28;20025;-41
2022/10/26 08:15:39;;;;;;;0.75;0.57;;;;;;;;;;5053076;28;20036;-41
2022/10/26 08:18:05;;;;;;;0.50;0.50;;;;;;;;;;5052895;28;20131;-41
2022/10/26 08:20:31;;;;;;;0.63;0.50;;;;;;;;;;5052783;28;20037;-41
2022/10/26 08:22:57;;;;;;;0.82;0.60;;;;;;;;;;5052803;28;20044;-41
2022/10/26 08:25:22;;;;;;;0.50;0.47;;;;;;;;;;5052609;28;20540;-41
2022/10/26 08:27:48;;;;;;;1.58;0.70;;;;;;;;;;5052509;28;20103;-41
2022/10/26 08:30:13;;;;;;;0.95;0.50;;;;;;;;;;5052485;28;20063;-41
2022/10/26 08:32:39;;;;;;;1.75;0.93;;;;;;;;;;5052482;28;20017;-41
2022/10/26 08:35:04;;;;;;;1.45;1.00;;;;;;;;;;5052290;28;20076;-41
2022/10/26 08:37:30;;;;;;;2.47;1.30;;;;;;;;;;5051966;28;20036;-41
2022/10/26 08:39:55;;;;;;;1.65;0.68;;;;;;;;;;5052247;28;20041;-41
2022/10/26 08:42:28;;;;;;;5.30;1.02;;;;;;;;;;5052273;28;20028;-41
2022/10/26 08:44:57;;;;;;;4.07;0.90;;;;;;;;;;5052199;28;20488;-41
2022/10/26 08:47:26;;;;;;;2.45;1.25;;;;;;;;;;5052210;28;20044;-41
2022/10/26 08:49:56;;;;;;;3.03;0.60;;;;;;;;;;5052398;28;20043;-41
2022/10/26 08:52:24;;;;;;;1.98;0.77;;;;;;;;;;5067433;28;20427;-41
2022/10/26 08:54:54;;;;;;;1.38;0.80;;;;;;;;;;5051582;28;20084;-41
2022/10/26 08:57:28;;;;;;;1.45;0.77;;;;;;;;;;5051896;28;20029;-41
2022/10/26 08:59:54;;;;;;;3.38;0.47;;;;;;;;;;5051881;28;20047;-41
2022/10/26 09:02:19;;;;;;;3.67;0.93;;;;;;;;;;5052248;28;20028;-41
2022/10/26 09:04:45;;;;;;;3.33;0.50;;;;;;;;;;5052154;28;20052;-41
2022/10/26 09:07:29;;;;;;;1.58;0.77;;;;;;;;;;5051763;28;20021;-40
2022/10/26 09:10:03;;;;;;;1.05;0.90;;;;;;;;;;5051786;28;20040;-42
2022/10/26 09:12:40;;;;;;;4.97;0.85;;;;;;;;;;5051746;28;20029;-41
2022/10/26 09:15:24;;;;;;;0.57;0.57;;;;;;;;;;5051612;28;20040;-41
2022/10/26 09:18:08;;;;;;;1.55;1.23;;;;;;;;;;5051781;28;20037;-41
2022/10/26 09:20:33;;;;;;;1.67;0.60;;;;;;;;;;5051641;28;20475;-41
2022/10/26 09:23:24;;;;;;;5.05;0.50;;;;;;;;;;5051439;28;20025;-41
2022/10/26 09:25:56;;;;;;;1.02;0.70;;;;;;;;;;5051686;28;20033;-41
2022/10/26 09:28:21;;;;;;;0.63;0.63;;;;;;;;;;5052026;28;20029;-41
2022/10/26 09:30:47;;;;;;;7.40;0.93;;;;;;;;;;5051541;28;20478;-41
2022/10/26 09:33:17;;;;;;;7.05;1.73;;;;;;;;;;5051390;28;20143;-41
2022/10/26 09:35:43;;;;;;;0.75;0.30;;;;;;;;;;5051261;28;20099;-44
2022/10/26 09:38:14;;;;;;;0.50;0.30;;;;;;;;;;5051116;28;20049;-41
2022/10/26 09:40:46;;;;;;;0.70;0.52;;;;;;;;;;5051392;28;20031;-41
2022/10/26 09:43:17;;;;;;;0.82;0.65;;;;;;;;;;5050001;28;20059;-41
2022/10/26 09:45:50;;;;;;;0.90;0.63;;;;;;;;;;5051321;28;20047;-41
2022/10/26 09:48:15;;;;;;;;;;;;;;;;;;5051693;28;20060;-41
2022/10/26 09:50:43;;;;;;;0.68;0.60;;;;;;;;;;5051173;28;19943;-41
2022/10/26 09:53:09;;;;;;;1.25;0.52;;;;;;;;;;5051086;28;20360;-41
2022/10/26 09:55:39;;;;;;;2.33;1.00;;;;;;;;;;5066660;28;20033;-41
2022/10/26 09:58:08;;;;;;;0.63;0.50;;;;;;;;;;5051061;28;20041;-41
2022/10/26 10:00:34;;;;;;;1.92;0.43;;;;;;;;;;5051448;28;20022;-40
2022/10/26 10:02:59;;;;;;;1.75;0.70;;;;;;;;;;5051015;28;20048;-41
2022/10/26 10:05:29;;;;;;;4.43;1.42;;;;;;;;;;5068192;28;20048;-41
2022/10/26 10:08:12;;;;;;;1.25;0.57;;;;;;;;;;5055187;28;20037;-40
2022/10/26 10:10:38;;;;;;;1.58;1.05;;;;;;;;;;5055143;28;20116;-41
2022/10/26 10:13:14;;;;;;;0.65;0.57;;;;;;;;;;5055048;28;20101;-40
2022/10/26 10:15:39;;;;;;;1.38;0.40;;;;;;;;;;5054999;28;20628;-41
2022/10/26 10:18:04;;;;;;;2.42;0.73;;;;;;;;;;5054806;28;20021;-41
2022/10/26 10:20:31;;;;;;;1.02;0.73;;;;;;;;;;5054989;28;20089;-40
2022/10/26 10:23:00;;;;;;;1.85;0.75;;;;;;;;;;5054899;28;20056;-41
2022/10/26 10:25:49;;;;;;;3.50;1.35;;;;;;;;;;5054782;28;20491;-41
2022/10/26 10:28:21;;;;;;;2.50;1.20;;;;;;;;;;5054687;28;20037;-41
2022/10/26 10:31:00;;;;;;;2.22;1.10;;;;;;;;;;5055196;28;20025;-41
2022/10/26 10:33:33;;;;;;;2.10;1.10;;;;;;;;;;5054745;28;20074;-41
2022/10/26 10:35:59;;;;;;;2.30;1.55;;;;;;;;;;5054465;28;20021;-41
2022/10/26 10:38:24;;;;;;;3.88;1.27;;;;;;;;;;5054473;28;20065;-42
2022/10/26 10:40:57;;;;;;;2.00;1.05;;;;;;;;;;5054654;28;20112;-41
2022/10/26 10:43:23;;;;;;;1.80;1.30;;;;;;;;;;5069968;28;20071;-41
2022/10/26 10:45:50;;;;;;;2.63;1.40;;;;;;;;;;5054421;28;20033;-41
2022/10/26 10:48:23;;;;;;;2.90;1.77;;;;;;;;;;5054471;28;20032;-41
2022/10/26 10:50:54;;;;;;;4.20;1.65;;;;;;;;;;5054411;28;20463;-41
2022/10/26 10:53:25;;;;;;;4.72;0.95;;;;;;;;;;5054317;28;20491;-41
2022/10/26 10:55:57;;;;;;;3.25;1.98;;;;;;;;;;5054120;28;20069;-41
2022/10/26 10:58:36;;;;;;;2.30;1.63;;;;;;;;;;5054287;28;20083;-40
2022/10/26 11:01:01;;;;;;;1.90;1.67;;;;;;;;;;5054180;28;20029;-41
2022/10/26 11:03:36;;;;;;;3.17;2.10;;;;;;;;;;5054447;28;20017;-41
2022/10/26 11:06:18;;;;;;;5.55;2.08;;;;;;;;;;5052811;28;20128;-40
2022/10/26 11:08:44;;;;;;;7.22;1.92;;;;;;;;;;5069476;28;20037;-41
2022/10/26 11:11:12;;;;;;;5.40;2.55;;;;;;;;;;5053976;28;20584;-41
2022/10/26 11:13:44;;;;;;;4.40;2.53;;;;;;;;;;5054283;28;20442;-41
2022/10/26 11:16:15;;;;;;;5.45;2.53;;;;;;;;;;5053334;28;20040;-40
2022/10/26 11:18:56;;;;;;;9.15;2.10;;;;;;;;;;5053705;28;20041;-41
2022/10/26 11:21:32;;;;;;;3.53;2.25;;;;;;;;;;5053852;28;20511;-41
2022/10/26 11:23:57;;;;;;;5.22;2.05;;;;;;;;;;5053726;28;20126;-40
2022/10/26 11:26:30;;;;;;;2.67;1.85;;;;;;;;;;5053771;28;20047;-40
2022/10/26 11:29:00;;;;;;;2.85;2.03;;;;;;;;;;5053630;28;20120;-41
2022/10/26 11:31:29;;;;;;;7.43;3.45;;;;;;;;;;5053681;28;20471;-41
2022/10/26 11:34:07;;;;;;;4.05;2.78;;;;;;;;;;5053588;28;20587;-41
2022/10/26 11:36:34;;;;;;;4.10;2.33;;;;;;;;;;5053422;28;20095;-41
2022/10/26 11:39:05;;;;;;;5.00;2.45;;;;;;;;;;5053356;28;20171;-41
2022/10/26 11:41:54;;;;;;;7.97;2.85;;;;;;;;;;5053492;28;20051;-41
2022/10/26 11:44:34;;;;;;;4.80;2.10;;;;;;;;;;5045355;28;20132;-41
2022/10/26 11:47:01;;;;;;;5.97;2.67;;;;;;;;;;5053251;28;20577;-41
2022/10/26 11:49:31;;;;;;;4.65;2.70;;;;;;;;;;5068656;28;20024;-41
2022/10/26 11:52:16;;;;;;;10.20;2.95;;;;;;;;;;5053503;28;20060;-41
2022/10/26 11:55:14;;;;;;;4.28;2.63;;;;;;;;;;5053251;28;20055;-41
2022/10/26 11:57:40;;;;;;;5.63;2.47;;;;;;;;;;5019425;28;20053;-41
2022/10/26 12:00:16;;;;;;;4.07;2.60;;;;;;;;;;5053177;28;20025;-41
2022/10/26 12:02:42;;;;;;;5.28;2.63;;;;;;;;;;5053375;28;20029;-41
2022/10/26 12:05:14;;;;;;;21.95;3.40;;;;;;;;;;5052837;28;20020;-41
2022/10/26 12:07:40;;;;;;;5.53;3.25;;;;;;;;;;5052950;28;20079;-41
2022/10/26 12:10:14;;;;;;;5.32;2.85;;;;;;;;;;5051617;28;20021;-41
2022/10/26 12:12:40;;;;;;;5.30;2.70;;;;;;;;;;5053110;28;20447;-41
2022/10/26 12:15:05;;;;;;;5.57;2.88;;;;;;;;;;5068074;28;20108;-41
2022/10/26 12:17:38;;;;;;;7.40;2.90;;;;;;;;;;5052977;28;20086;-41
2022/10/26 12:20:09;;;;;;;6.68;2.67;;;;;;;;;;5052649;28;20107;-41
2022/10/26 12:22:42;;;;;;;5.97;3.55;;;;;;;;;;5052694;28;20487;-41
2022/10/26 12:25:17;;;;;;;6.97;3.75;;;;;;;;;;5052539;28;20368;-41
2022/10/26 12:27:43;;;;;;;5.45;3.30;;;;;;;;;;5052339;28;20041;-41
2022/10/26 12:30:11;;;;;;;10.50;2.95;;;;;;;;;;5051652;28;20150;-41
2022/10/26 12:32:40;;;;;;;4.28;2.97;;;;;;;;;;5052525;28;20039;-41
2022/10/26 12:35:25;;;;;;;7.85;3.60;;;;;;;;;;5052352;28;20048;-41
2022/10/26 12:37:50;;;;;;;5.53;3.20;;;;;;;;;;5052394;28;20136;-41
2022/10/26 12:40:34;;;;;;;4.70;2.90;;;;;;;;;;5052400;28;20534;-40
2022/10/26 12:43:12;;;;;;;9.68;2.50;;;;;;;;;;5052279;28;20036;-41
2022/10/26 12:45:38;;;;;;;4.97;3.10;;;;;;;;;;5052240;28;20021;-42
2022/10/26 12:48:05;;;;;;;4.57;2.75;;;;;;;;;;5052360;28;20032;-41
2022/10/26 12:50:30;;;;;;;8.40;3.67;;;;;;;;;;5052165;28;20495;-41
2022/10/26 12:53:07;;;;;;;7.03;4.10;;;;;;;;;;5052076;28;20031;-41
2022/10/26 12:55:32;;;;;;;5.57;3.05;;;;;;;;;;5051925;28;20033;-41
2022/10/26 12:58:13;;;;;;;4.63;3.00;;;;;;;;;;5051923;28;20501;-41
2022/10/26 13:00:50;;;;;;;6.78;3.53;;;;;;;;;;5052024;28;20044;-41
2022/10/26 13:03:19;;;;;;;5.32;3.13;;;;;;;;;;5051054;28;20037;-41
2022/10/26 13:06:03;;;;;;;5.10;2.70;;;;;;;;;;5051807;28;20028;-41
2022/10/26 13:08:37;;;;;;;10.95;3.72;;;;;;;;;;5052091;28;20387;-40
2022/10/26 13:11:05;;;;;;;5.32;3.15;;;;;;;;;;5050500;28;20033;-41
2022/10/26 13:13:31;;;;;;;6.15;3.15;;;;;;;;;;5052079;28;20021;-41
2022/10/26 13:15:58;;;;;;;3.50;2.72;;;;;;;;;;5051759;28;20389;-41
2022/10/26 13:18:23;;;;;;;7.82;3.20;;;;;;;;;;5051988;28;20021;-41
2022/10/26 13:21:04;;;;;;;3.53;3.20;;;;;;;;;;5051676;28;20032;-41
2022/10/26 13:23:31;;;;;;;6.60;2.65;;;;;;;;;;5051598;28;20025;-42
2022/10/26 13:26:00;;;;;;;4.93;3.55;;;;;;;;;;5051441;28;20013;-41
2022/10/26 13:28:31;;;;;;;5.35;2.80;;;;;;;;;;5051574;28;20029;-41
2022/10/26 13:30:57;;;;;;;6.30;4.20;;;;;;;;;;5051591;28;20025;-41
2022/10/26 13:33:25;;;;;;;5.18;3.30;;;;;;;;;;5051498;28;20095;-41
2022/10/26 13:35:52;;;;;;;5.85;3.63;;;;;;;;;;5051302;28;20036;-41
2022/10/26 13:38:21;;;;;;;5.18;2.65;;;;;;;;;;5051121;28;20045;-41
2022/10/26 13:40:47;;;;;;;10.32;4.13;;;;;;;;;;5051028;28;20033;-40
2022/10/26 13:43:21;;;;;;;4.65;2.33;;;;;;;;;;5051372;28;20103;-41
2022/10/26 13:45:58;;;;;;;3.20;2.47;;;;;;;;;;5051327;28;20029;-40
2022/10/26 13:48:32;;;;;;;7.35;2.65;;;;;;;;;;5051248;28;20033;-41
2022/10/26 13:51:01;;;;;;;9.82;3.55;;;;;;;;;;5051197;28;20025;-41
2022/10/26 13:53:33;;;;;;;6.45;3.10;;;;;;;;;;5051224;28;20017;-41
2022/10/26 13:56:22;;;;;;;5.90;3.45;;;;;;;;;;5051042;28;20021;-41
2022/10/26 13:59:11;;;;;;;4.40;2.65;;;;;;;;;;5043170;28;20044;-41
2022/10/26 14:01:38;;;;;;;5.28;2.67;;;;;;;;;;5043306;28;20079;-40
2022/10/26 14:04:17;;;;;;;6.78;3.88;;;;;;;;;;5049826;28;20049;-40
2022/10/26 14:06:48;;;;;;;10.32;3.20;;;;;;;;;;5050991;28;20025;-41
2022/10/26 14:09:15;;;;;;;6.63;2.97;;;;;;;;;;5051016;28;20039;-41
2022/10/26 14:11:44;;;;;;;9.55;2.88;;;;;;;;;;5051372;28;20040;-41
2022/10/26 14:14:14;;;;;;;8.30;3.90;;;;;;;;;;5049952;28;20382;-42
2022/10/26 14:16:45;;;;;;;5.35;2.67;;;;;;;;;;5051095;28;20036;-43
2022/10/26 14:19:21;;;;;;;6.18;3.20;;;;;;;;;;5050897;28;20048;-41
2022/10/26 14:21:49;;;;;;;9.25;2.88;;;;;;;;;;5051015;28;20036;-41
2022/10/26 14:24:22;;;;;;;5.85;2.72;;;;;;;;;;5050683;28;20029;-41
2022/10/26 14:26:48;;;;;;;6.05;3.35;;;;;;;;;;5050816;28;20021;-41
2022/10/26 14:29:25;;;;;;;3.47;2.50;;;;;;;;;;5051164;28;20028;-41
2022/10/26 14:31:51;;;;;;;5.32;2.85;;;;;;;;;;5050908;28;20048;-41
2022/10/26 14:34:19;;;;;;;6.85;3.40;;;;;;;;;;5050714;28;20070;-41
2022/10/26 14:36:50;;;;;;;3.70;2.72;;;;;;;;;;5050815;28;20052;-41
2022/10/26 14:39:16;;;;;;;3.63;2.85;;;;;;;;;;5050684;28;20403;-41
2022/10/26 14:41:41;;;;;;;6.63;2.55;;;;;;;;;;5050835;28;20025;-41
2022/10/26 14:44:15;;;;;;;6.47;2.72;;;;;;;;;;5050680;28;20159;-41
2022/10/26 14:46:42;;;;;;;5.85;3.75;;;;;;;;;;5050716;28;20029;-41
2022/10/26 14:49:17;;;;;;;5.13;3.00;;;;;;;;;;5050919;28;20501;-41
2022/10/26 14:51:43;;;;;;;5.18;3.33;;;;;;;;;;5066667;28;20025;-40
2022/10/26 14:54:25;;;;;;;7.40;3.47;;;;;;;;;;5054334;28;20167;-41